General Aviation Weather

Text Reports

Enter one or more of the following location identifiers separated by a space:

Zip Code, Four-Character ICAO or Three-Character IATA airport codes.

METAR - Aviation Routine Weather Report
KLHB - Hearne, Texas
Updated at 6:35 PM GMT on December 05, 2016 (12:35 PM CST):
METAR KLHB 051835Z AUTO 29007KT 2SM BR BKN006 OVC010 10/09 A2983 RMK AO2 T00950091
TAF - Terminal Area Forecast
KLHB - Hearne, Texas
Updated at 6:35 PM GMT on December 05, 2016 (12:35 PM CST):
No TAF is currently available for this location.
Decoded:
No decoded TAF is available.
PIREP - Pilot Weather Report
KLHB - Hearne, Texas
Updated at 6:35 PM GMT on December 05, 2016 (12:35 PM CST):
No PIREP is currently available for this location.
AIRMET - Airmens Meteorological Information
KLHB - Hearne, Texas
Updated at 6:35 PM GMT on December 05, 2016 (12:35 PM CST):
No AIRMET is currently available for this location.
SIGMET - Significant Meteorological Information
KLHB - Hearne, Texas
Updated at 6:35 PM GMT on December 05, 2016 (12:35 PM CST):
No SIGMET is currently available for this location.
NOTAM - Notice to Airmen
KLHB - Hearne, Texas
Updated at 6:35 PM GMT on December 05, 2016 (12:35 PM CST):
No NOTAM is currently available for this location.
Forecast Area
KLHB - Hearne, Texas
Updated at 6:35 PM GMT on December 05, 2016 (12:35 PM CST):
No NOTAM is currently available for this location.
Aviation Weather Maps